Time;durP1;ratioP1;P1;durP2;ratioP2;P2;SDS_P1;SDS_P2;PMS_P1;PMS_P2;Temp;Humidity;BMP_temperature;BMP_pressure;BME280_temperature;BME280_humidity;BME280_pressure;Samples;Min_cycle;Max_cycle;Signal;HPM_P1;HPM_P2
2023/11/19 00:02:05;;;;;;;7.00;5.40;;;7.40;99.70;;;;;;6302865;22;20105;-65
2023/11/19 01:48:46;;;;;;;6.05;4.47;;;7.30;99.60;;;;;;6289247;22;20075;-70
2023/11/19 01:51:32;;;;;;;10.50;5.43;;;7.40;99.60;;;;;;6300483;22;20015;-70
2023/11/19 01:54:18;;;;;;;6.35;4.57;;;7.30;99.50;;;;;;6300418;22;20007;-70
2023/11/19 01:57:04;;;;;;;6.03;4.32;;;7.40;99.50;;;;;;6299004;22;20015;-71
2023/11/19 01:59:53;;;;;;;5.68;4.38;;;7.40;99.50;;;;;;6301078;22;20013;-71
2023/11/19 02:02:40;;;;;;;8.57;4.70;;;7.40;99.50;;;;;;6299905;22;20098;-70
2023/11/19 02:05:26;;;;;;;5.93;4.32;;;7.50;99.50;;;;;;6281423;22;20048;-70
2023/11/19 02:08:13;;;;;;;6.43;4.40;;;7.40;99.50;;;;;;6269935;22;20135;-70
2023/11/19 02:10:59;;;;;;;7.13;4.78;;;7.40;99.50;;;;;;6268758;22;20016;-69
2023/11/19 02:13:45;;;;;;;6.63;4.53;;;7.40;99.60;;;;;;6253813;22;20113;-69
2023/11/19 02:16:31;;;;;;;6.90;4.32;;;7.40;99.60;;;;;;6275344;22;20011;-70
2023/11/19 02:19:20;;;;;;;7.05;4.78;;;7.40;99.70;;;;;;6269948;22;20070;-69
2023/11/19 02:22:06;;;;;;;5.45;4.13;;;7.40;99.80;;;;;;6247392;22;20016;-70
2023/11/19 02:24:59;;;;;;;6.93;5.45;;;7.30;99.80;;;;;;6266956;22;20315;-70
2023/11/19 02:28:00;;;;;;;5.85;4.50;;;7.40;99.80;;;;;;6270245;22;20016;-69
2023/11/19 02:30:46;;;;;;;6.65;4.40;;;7.40;99.80;;;;;;6269951;22;20081;-69
2023/11/19 02:33:32;;;;;;;5.78;4.55;;;7.40;99.70;;;;;;6247458;22;20011;-69
2023/11/19 02:36:18;;;;;;;6.63;4.90;;;7.40;99.80;;;;;;6270287;22;20110;-70
2023/11/19 02:39:08;;;;;;;6.35;4.28;;;7.40;99.80;;;;;;6269807;22;20022;-67
2023/11/19 02:41:54;;;;;;;6.95;4.65;;;7.40;99.80;;;;;;6268973;22;20094;-69
2023/11/19 02:44:44;;;;;;;5.85;4.38;;;7.40;99.80;;;;;;6269085;22;20014;-68
2023/11/19 02:47:30;;;;;;;5.97;4.57;;;7.40;99.80;;;;;;6268221;22;20053;-69
2023/11/19 02:50:24;;;;;;;5.30;3.78;;;7.40;99.80;;;;;;6269399;22;20026;-68
2023/11/19 02:53:10;;;;;;;5.65;4.57;;;7.40;99.80;;;;;;6268421;22;20004;-69
2023/11/19 02:56:09;;;;;;;5.45;4.10;;;7.40;99.90;;;;;;6272234;22;20022;-68
2023/11/19 02:58:55;;;;;;;7.07;3.83;;;7.50;99.90;;;;;;6270841;22;20335;-69
2023/11/19 03:01:43;;;;;;;5.40;3.90;;;7.50;99.90;;;;;;6273226;22;20069;-69
2023/11/19 03:04:30;;;;;;;5.53;3.97;;;7.50;99.90;;;;;;6270037;22;20059;-69
2023/11/19 03:07:17;;;;;;;5.45;3.50;;;7.50;99.90;;;;;;6270970;22;20018;-69
2023/11/19 03:10:05;;;;;;;7.43;4.15;;;7.50;99.90;;;;;;6270467;22;20493;-68
2023/11/19 03:12:51;;;;;;;6.43;3.85;;;7.50;99.80;;;;;;6269056;22;20394;-68
2023/11/19 03:15:37;;;;;;;5.47;3.85;;;7.50;99.90;;;;;;6269438;22;20011;-69
2023/11/19 03:18:23;;;;;;;4.95;3.88;;;7.50;99.80;;;;;;6249067;22;20012;-68
2023/11/19 03:21:09;;;;;;;7.63;3.17;;;7.50;99.80;;;;;;6269106;22;20019;-68
2023/11/19 03:23:55;;;;;;;6.82;3.75;;;7.60;99.90;;;;;;6271035;22;20008;-68
2023/11/19 03:26:42;;;;;;;4.78;4.00;;;7.60;99.90;;;;;;6272770;22;20372;-69
2023/11/19 03:29:28;;;;;;;6.07;4.43;;;7.60;99.90;;;;;;6249548;22;20364;-68
2023/11/19 03:32:15;;;;;;;5.32;4.20;;;7.70;99.90;;;;;;6271011;22;20012;-68
2023/11/19 03:35:01;;;;;;;4.95;3.63;;;7.70;99.90;;;;;;6270992;22;20242;-68
2023/11/19 03:37:47;;;;;;;6.15;3.42;;;7.70;99.90;;;;;;6270824;22;20515;-68
2023/11/19 03:40:33;;;;;;;6.35;3.90;;;7.60;99.90;;;;;;6271636;22;20467;-68
2023/11/19 03:43:19;;;;;;;5.80;3.80;;;7.60;99.90;;;;;;6271059;22;20007;-68
2023/11/19 03:46:21;;;;;;;4.75;3.72;;;7.70;99.90;;;;;;6270926;22;20004;-68
2023/11/19 03:49:07;;;;;;;4.60;4.00;;;7.60;99.90;;;;;;6271198;22;20454;-67
2023/11/19 03:51:53;;;;;;;6.32;4.00;;;7.60;99.90;;;;;;6268965;22;20012;-68
2023/11/19 03:54:39;;;;;;;5.65;4.13;;;7.60;99.90;;;;;;6268854;22;20087;-68
2023/11/19 03:57:25;;;;;;;5.50;3.85;;;7.50;99.90;;;;;;6270159;22;20008;-69
2023/11/19 04:00:13;;;;;;;5.35;4.13;;;7.50;99.90;;;;;;6248395;22;20012;-67
2023/11/19 04:03:00;;;;;;;6.10;3.92;;;7.50;99.90;;;;;;6269259;22;20022;-67
2023/11/19 04:05:46;;;;;;;7.65;4.45;;;7.50;99.90;;;;;;6268029;22;20012;-67
2023/11/19 04:08:32;;;;;;;6.05;3.45;;;7.40;99.90;;;;;;6270236;22;20066;-67
2023/11/19 04:11:18;;;;;;;5.43;3.80;;;7.40;99.90;;;;;;6271717;22;20012;-66
2023/11/19 04:14:04;;;;;;;7.78;3.95;;;7.40;99.90;;;;;;6271079;22;20030;-66
2023/11/19 04:16:51;;;;;;;7.30;4.93;;;7.40;99.90;;;;;;6271133;22;20310;-67
2023/11/19 04:19:36;;;;;;;5.32;3.97;;;7.40;99.90;;;;;;6271216;22;20359;-68
2023/11/19 04:22:23;;;;;;;7.00;4.22;;;7.40;99.90;;;;;;6268769;22;20053;-67
2023/11/19 04:25:09;;;;;;;6.25;4.82;;;7.40;99.90;;;;;;6269918;22;20007;-67
2023/11/19 04:27:55;;;;;;;6.63;4.55;;;7.40;99.90;;;;;;6271479;22;20051;-67
2023/11/19 04:30:41;;;;;;;4.72;3.65;;;7.40;99.90;;;;;;6268823;22;20012;-67
2023/11/19 04:33:27;;;;;;;4.90;4.07;;;7.40;99.90;;;;;;6270575;22;20434;-67
2023/11/19 04:36:14;;;;;;;7.82;4.65;;;7.40;99.90;;;;;;6271681;22;20011;-68
2023/11/19 04:39:00;;;;;;;6.15;4.70;;;7.40;99.90;;;;;;6270171;22;20065;-68
2023/11/19 04:41:51;;;;;;;8.25;4.43;;;7.40;99.90;;;;;;6271970;22;20101;-67
2023/11/19 04:44:37;;;;;;;5.72;4.28;;;7.40;99.90;;;;;;6270419;22;20433;-67
2023/11/19 04:47:23;;;;;;;6.30;4.38;;;7.40;99.90;;;;;;6270683;22;20453;-67
2023/11/19 04:50:10;;;;;;;6.78;4.05;;;7.30;99.90;;;;;;6269861;22;20047;-67
2023/11/19 04:52:56;;;;;;;6.35;4.90;;;7.40;99.90;;;;;;6270404;22;20035;-67
2023/11/19 04:55:42;;;;;;;6.60;5.10;;;7.40;99.90;;;;;;6268804;22;20022;-67
2023/11/19 04:58:29;;;;;;;7.10;4.82;;;7.40;99.90;;;;;;6271064;22;20011;-66
2023/11/19 05:01:18;;;;;;;6.60;4.85;;;7.40;99.90;;;;;;6270930;22;20096;-67
2023/11/19 05:04:04;;;;;;;6.97;4.53;;;7.30;99.90;;;;;;6269850;22;20442;-67
2023/11/19 05:06:49;;;;;;;5.93;4.80;;;7.30;99.90;;;;;;6271398;22;20007;-66
2023/11/19 05:09:35;;;;;;;7.53;4.85;;;7.30;99.90;;;;;;6270853;22;20018;-68
2023/11/19 05:12:22;;;;;;;7.30;5.30;;;7.30;99.90;;;;;;6268308;22;20130;-67
2023/11/19 05:15:09;;;;;;;6.03;4.45;;;7.30;99.90;;;;;;6270071;22;20408;-67
2023/11/19 05:17:55;;;;;;;6.70;4.78;;;7.30;99.90;;;;;;6269599;22;20086;-67
2023/11/19 05:20:40;;;;;;;5.55;3.97;;;7.30;99.90;;;;;;6271698;22;20078;-68
2023/11/19 05:23:26;;;;;;;5.25;3.97;;;7.30;99.90;;;;;;6270291;22;20469;-67
2023/11/19 05:26:20;;;;;;;6.30;4.75;;;7.30;99.90;;;;;;6268665;22;20582;-69
2023/11/19 05:29:06;;;;;;;7.07;5.10;;;7.30;99.90;;;;;;6268108;22;20080;-71
2023/11/19 05:31:52;;;;;;;8.13;4.70;;;7.30;99.90;;;;;;6271385;22;20041;-71
2023/11/19 05:34:38;;;;;;;7.13;4.10;;;7.30;99.90;;;;;;6284130;22;20008;-70
2023/11/19 05:37:24;;;;;;;7.30;4.88;;;7.30;99.90;;;;;;6252901;22;20008;-70
2023/11/19 05:40:17;;;;;;;5.95;4.25;;;7.30;99.90;;;;;;6270651;22;20642;-69
2023/11/19 05:43:03;;;;;;;8.40;4.70;;;7.30;99.90;;;;;;6267981;22;20015;-69
2023/11/19 05:45:49;;;;;;;5.50;4.40;;;7.30;99.90;;;;;;6270800;22;20069;-68
2023/11/19 05:48:35;;;;;;;6.07;4.50;;;7.30;99.90;;;;;;6270175;22;20091;-67
2023/11/19 05:51:20;;;;;;;8.02;5.63;;;7.30;99.90;;;;;;6268933;22;20015;-68
2023/11/19 05:54:10;;;;;;;5.35;4.43;;;7.20;99.90;;;;;;6271730;22;20007;-68
2023/11/19 05:56:57;;;;;;;6.07;4.60;;;7.30;99.90;;;;;;6267430;22;20019;-69
2023/11/19 05:59:43;;;;;;;6.10;4.43;;;7.30;99.90;;;;;;6269374;22;20011;-69
2023/11/19 06:02:29;;;;;;;5.95;4.25;;;7.20;99.90;;;;;;6269687;22;20345;-68
2023/11/19 06:05:15;;;;;;;6.72;4.80;;;7.30;99.90;;;;;;6270238;22;20346;-67
2023/11/19 06:08:01;;;;;;;6.15;4.57;;;7.30;99.90;;;;;;6267126;22;20090;-70
2023/11/19 06:10:50;;;;;;;6.10;4.38;;;7.30;99.90;;;;;;6269712;22;20311;-69
2023/11/19 06:13:36;;;;;;;6.55;4.47;;;7.30;99.90;;;;;;6267756;22;20077;-68
2023/11/19 06:16:22;;;;;;;5.20;4.13;;;7.20;99.90;;;;;;6268275;22;20463;-69
2023/11/19 06:19:09;;;;;;;5.63;3.97;;;7.30;99.90;;;;;;6270520;22;20015;-69
2023/11/19 06:21:55;;;;;;;5.70;4.03;;;7.30;99.90;;;;;;6271462;22;20026;-69
2023/11/19 06:24:41;;;;;;;5.18;4.15;;;7.30;99.90;;;;;;6271084;22;20008;-69
2023/11/19 06:27:27;;;;;;;5.45;3.67;;;7.30;99.90;;;;;;6269826;22;20007;-69
2023/11/19 06:30:13;;;;;;;6.13;3.55;;;7.40;99.90;;;;;;6272820;22;20446;-69
2023/11/19 06:33:00;;;;;;;5.18;3.67;;;7.40;99.90;;;;;;6271502;22;20115;-69
2023/11/19 06:35:46;;;;;;;5.18;3.88;;;7.40;99.90;;;;;;6271243;22;20004;-69
2023/11/19 06:38:32;;;;;;;5.57;4.00;;;7.40;99.90;;;;;;6269901;22;20012;-69
2023/11/19 06:41:18;;;;;;;4.50;3.72;;;7.40;99.90;;;;;;6273198;22;20030;-69
2023/11/19 06:44:04;;;;;;;4.78;3.67;;;7.40;99.90;;;;;;6250776;22;20008;-69
2023/11/19 06:46:50;;;;;;;5.43;3.83;;;7.40;99.90;;;;;;6271641;22;20417;-68
2023/11/19 06:49:37;;;;;;;5.85;3.78;;;7.40;99.90;;;;;;6270160;22;20027;-69
2023/11/19 06:52:23;;;;;;;5.30;3.53;;;7.40;99.90;;;;;;6269244;22;20069;-67
2023/11/19 06:55:09;;;;;;;5.13;3.70;;;7.40;99.90;;;;;;6271309;22;20023;-67
2023/11/19 06:57:55;;;;;;;4.63;3.35;;;7.40;99.90;;;;;;6270476;22;20686;-68
2023/11/19 07:00:41;;;;;;;5.40;3.80;;;7.40;99.90;;;;;;6271218;22;20594;-67
2023/11/19 07:03:27;;;;;;;6.03;4.40;;;7.40;99.90;;;;;;6269170;22;20036;-68
2023/11/19 07:06:13;;;;;;;4.25;3.40;;;7.40;99.90;;;;;;6271027;22;20063;-69
2023/11/19 07:08:59;;;;;;;5.82;4.20;;;7.40;99.90;;;;;;6269699;22;20012;-68
2023/11/19 07:11:46;;;;;;;6.65;4.35;;;7.50;99.90;;;;;;6271029;22;20161;-69
2023/11/19 07:14:32;;;;;;;5.40;4.13;;;7.50;99.90;;;;;;6272543;22;20000;-69
2023/11/19 07:17:20;;;;;;;6.55;4.13;;;7.50;99.90;;;;;;6272297;22;20091;-69
2023/11/19 07:20:06;;;;;;;5.22;3.30;;;7.60;99.90;;;;;;6246454;22;20011;-69
2023/11/19 07:22:52;;;;;;;5.32;3.83;;;7.60;99.90;;;;;;6269822;22;20272;-69
2023/11/19 07:25:38;;;;;;;4.63;3.42;;;7.60;99.90;;;;;;6270787;22;20011;-69
2023/11/19 07:28:24;;;;;;;5.85;3.30;;;7.60;99.90;;;;;;6266233;22;20019;-67
2023/11/19 07:31:11;;;;;;;4.68;3.72;;;7.60;99.90;;;;;;6267252;22;20042;-66
2023/11/19 07:33:57;;;;;;;4.07;3.30;;;7.60;99.90;;;;;;6272032;22;20097;-67
2023/11/19 07:36:42;;;;;;;4.88;3.25;;;7.70;99.90;;;;;;6269617;22;20014;-67
2023/11/19 07:39:29;;;;;;;4.75;3.35;;;7.70;99.90;;;;;;6270308;22;20019;-68
2023/11/19 07:42:15;;;;;;;4.30;3.35;;;7.70;99.90;;;;;;6271589;22;20539;-69
2023/11/19 07:45:01;;;;;;;5.13;3.75;;;7.60;99.90;;;;;;6269126;22;20178;-68
2023/11/19 07:47:47;;;;;;;4.55;3.58;;;7.70;99.90;;;;;;6269352;22;20012;-69
2023/11/19 07:50:33;;;;;;;4.70;3.28;;;7.70;99.90;;;;;;6271411;22;20016;-68
2023/11/19 07:53:19;;;;;;;5.07;3.63;;;7.80;99.90;;;;;;6270166;22;20007;-67
2023/11/19 07:56:05;;;;;;;4.80;3.83;;;7.80;99.90;;;;;;6271105;22;20357;-67
2023/11/19 07:58:52;;;;;;;5.65;3.90;;;7.80;99.90;;;;;;6269399;22;20069;-69
2023/11/19 08:01:38;;;;;;;4.30;3.25;;;7.80;99.90;;;;;;6247890;22;20150;-67
2023/11/19 08:04:24;;;;;;;4.40;3.55;;;7.90;99.90;;;;;;6268435;22;20012;-68
2023/11/19 08:07:10;;;;;;;6.15;3.95;;;7.90;99.90;;;;;;6270114;22;20437;-66
2023/11/19 08:09:56;;;;;;;4.18;3.35;;;8.00;99.90;;;;;;6267706;22;20011;-67
2023/11/19 08:12:42;;;;;;;5.50;3.75;;;8.00;99.90;;;;;;6269979;22;20007;-68
2023/11/19 08:15:28;;;;;;;4.53;2.85;;;8.00;99.90;;;;;;6269805;22;20008;-67
2023/11/19 08:18:14;;;;;;;5.78;4.10;;;8.10;99.90;;;;;;6270995;22;20405;-67
2023/11/19 08:21:00;;;;;;;4.97;3.50;;;8.10;99.90;;;;;;6268281;22;20048;-67
2023/11/19 08:23:46;;;;;;;5.00;3.45;;;8.20;99.90;;;;;;6269979;22;20008;-67
2023/11/19 08:26:32;;;;;;;4.25;3.45;;;8.20;99.90;;;;;;6270779;22;20338;-67
2023/11/19 08:29:18;;;;;;;6.43;3.70;;;8.30;99.90;;;;;;6269049;22;20319;-67
2023/11/19 08:32:04;;;;;;;4.32;3.20;;;8.30;99.90;;;;;;6269790;22;20464;-67
2023/11/19 08:34:50;;;;;;;4.07;2.88;;;8.40;99.90;;;;;;6269038;22;20036;-67
2023/11/19 08:37:37;;;;;;;4.60;3.67;;;8.40;99.90;;;;;;6248584;22;20016;-67
2023/11/19 08:40:23;;;;;;;4.47;3.22;;;8.60;99.90;;;;;;6270163;22;20035;-67
2023/11/19 08:43:09;;;;;;;4.57;3.63;;;8.50;99.90;;;;;;6267476;22;20020;-67
2023/11/19 08:45:55;;;;;;;4.53;3.45;;;8.60;99.90;;;;;;6270421;22;20012;-67
2023/11/19 08:48:41;;;;;;;4.45;3.25;;;8.60;99.90;;;;;;6268610;22;20014;-67
2023/11/19 08:51:28;;;;;;;5.57;4.07;;;8.70;99.90;;;;;;6276290;22;20016;-66
2023/11/19 08:54:14;;;;;;;4.38;3.50;;;8.80;99.90;;;;;;6272702;22;20014;-67
2023/11/19 08:57:00;;;;;;;5.07;3.70;;;8.80;99.90;;;;;;6270757;22;20018;-67
2023/11/19 08:59:46;;;;;;;5.13;3.67;;;8.90;99.90;;;;;;6267401;22;20345;-68
2023/11/19 09:02:32;;;;;;;5.15;3.92;;;9.00;99.90;;;;;;6269637;22;20016;-68
2023/11/19 09:05:18;;;;;;;5.55;3.88;;;9.10;99.90;;;;;;6269294;22;20008;-69
2023/11/19 09:08:04;;;;;;;7.30;4.28;;;9.10;99.90;;;;;;6246758;22;20023;-68
2023/11/19 09:10:51;;;;;;;5.30;4.28;;;9.20;99.90;;;;;;6268699;22;20417;-67
2023/11/19 09:13:37;;;;;;;5.00;3.85;;;9.20;99.90;;;;;;6269156;22;20355;-66
2023/11/19 09:16:23;;;;;;;4.97;3.92;;;9.30;99.90;;;;;;6245350;22;20046;-68
2023/11/19 09:19:10;;;;;;;6.63;3.90;;;9.30;99.90;;;;;;6269571;22;20008;-67
2023/11/19 09:21:55;;;;;;;4.05;3.40;;;9.40;99.90;;;;;;6248011;22;20099;-68
2023/11/19 09:24:43;;;;;;;5.25;3.63;;;9.50;99.90;;;;;;6268849;22;20015;-67
2023/11/19 09:27:29;;;;;;;5.68;3.60;;;9.50;99.90;;;;;;6269903;22;20018;-67
2023/11/19 09:30:16;;;;;;;3.90;3.10;;;9.60;99.90;;;;;;6267687;22;20018;-67
2023/11/19 09:33:02;;;;;;;5.85;3.20;;;9.70;99.90;;;;;;6269679;22;20476;-67
2023/11/19 09:35:49;;;;;;;4.53;3.28;;;9.80;99.90;;;;;;6269973;22;20041;-67
2023/11/19 09:38:38;;;;;;;4.28;3.40;;;9.90;99.90;;;;;;6269564;22;20058;-67
2023/11/19 09:41:25;;;;;;;5.15;2.90;;;10.00;99.90;;;;;;6267424;22;20015;-67
2023/11/19 09:44:12;;;;;;;5.43;3.63;;;10.20;99.90;;;;;;6268035;22;20011;-66
2023/11/19 09:46:59;;;;;;;4.40;2.80;;;10.30;99.90;;;;;;6268097;22;20050;-66
2023/11/19 09:49:45;;;;;;;6.32;3.40;;;10.40;99.90;;;;;;6268528;22;20343;-68
2023/11/19 09:52:31;;;;;;;3.67;2.97;;;10.50;99.90;;;;;;6267742;22;20429;-68
2023/11/19 09:55:17;;;;;;;6.22;3.28;;;10.50;99.90;;;;;;6269798;22;20019;-66
2023/11/19 09:58:03;;;;;;;5.93;3.22;;;10.60;99.90;;;;;;6268611;22;20443;-66
2023/11/19 10:00:51;;;;;;;5.13;3.47;;;10.70;99.90;;;;;;6269877;22;20014;-67
2023/11/19 10:03:39;;;;;;;6.25;3.90;;;10.80;99.90;;;;;;6267438;22;20016;-67
2023/11/19 10:06:26;;;;;;;5.10;3.22;;;10.90;99.90;;;;;;6269768;22;20039;-66
2023/11/19 10:09:15;;;;;;;4.50;2.65;;;11.00;99.90;;;;;;6268295;22;20038;-67
2023/11/19 10:12:01;;;;;;;6.30;3.40;;;11.10;99.90;;;;;;6248067;22;20011;-66
2023/11/19 10:14:48;;;;;;;4.68;2.45;;;11.20;99.90;;;;;;6270840;22;20094;-67
2023/11/19 10:17:34;;;;;;;4.50;2.65;;;11.30;99.90;;;;;;6269669;22;20003;-66
2023/11/19 10:20:20;;;;;;;3.85;2.53;;;11.30;99.90;;;;;;6269247;22;20011;-66
2023/11/19 10:23:06;;;;;;;4.20;2.63;;;11.40;99.90;;;;;;6270320;22;20055;-66
2023/11/19 10:25:53;;;;;;;3.35;2.30;;;11.40;99.90;;;;;;6270445;22;20011;-67
2023/11/19 10:28:45;;;;;;;4.90;3.28;;;11.40;99.90;;;;;;6267340;22;20066;-67
2023/11/19 10:31:31;;;;;;;5.32;2.75;;;11.50;99.90;;;;;;6269429;22;20397;-67
2023/11/19 10:34:27;;;;;;;5.68;2.70;;;11.50;99.90;;;;;;6270817;22;20433;-66
2023/11/19 10:37:29;;;;;;;;;;;11.60;99.90;;;;;;6269545;22;20011;-67
2023/11/19 10:40:15;;;;;;;6.72;3.03;;;11.70;99.90;;;;;;6270487;22;19907;-67
2023/11/19 10:43:03;;;;;;;5.32;2.47;;;11.70;99.90;;;;;;6269121;22;20120;-67
2023/11/19 10:45:49;;;;;;;5.22;3.25;;;11.80;99.90;;;;;;6269199;22;20015;-68
2023/11/19 10:48:35;;;;;;;4.30;2.33;;;11.90;99.90;;;;;;6270137;22;20101;-68
2023/11/19 10:51:22;;;;;;;4.35;1.92;;;12.00;99.90;;;;;;6270057;22;20500;-68
2023/11/19 10:54:09;;;;;;;6.22;3.22;;;12.10;99.90;;;;;;6265963;22;20011;-67
2023/11/19 10:57:00;;;;;;;5.22;2.45;;;12.20;99.90;;;;;;6267754;22;20633;-67
2023/11/19 10:59:49;;;;;;;7.47;2.63;;;12.30;99.90;;;;;;6268974;22;20087;-67
2023/11/19 11:02:41;;;;;;;7.45;3.03;;;12.40;99.90;;;;;;6269539;22;20492;-68
2023/11/19 11:05:29;;;;;;;4.57;3.15;;;12.50;99.90;;;;;;6267587;22;20008;-67
2023/11/19 11:08:15;;;;;;;5.97;3.00;;;12.60;99.90;;;;;;6269118;22;20050;-67
2023/11/19 11:11:04;;;;;;;16.02;2.78;;;12.70;99.90;;;;;;6269034;22;20018;-68
2023/11/19 11:13:52;;;;;;;9.00;4.05;;;12.70;99.90;;;;;;6267102;22;20083;-67
2023/11/19 11:16:40;;;;;;;6.90;2.92;;;12.70;99.90;;;;;;6267695;22;20008;-69
2023/11/19 11:19:27;;;;;;;8.90;2.50;;;12.70;99.90;;;;;;6271029;22;20038;-68
2023/11/19 11:22:16;;;;;;;8.13;3.30;;;12.70;99.90;;;;;;6249593;22;20023;-67
2023/11/19 11:25:16;;;;;;;7.75;3.35;;;12.70;99.90;;;;;;6269167;22;20007;-67
2023/11/19 11:28:12;;;;;;;7.88;2.75;;;12.70;99.90;;;;;;6271503;22;20058;-68
2023/11/19 11:31:20;;;;;;;10.45;3.15;;;12.70;99.90;;;;;;6271540;22;20158;-68
2023/11/19 11:34:28;;;;;;;12.95;4.53;;;12.70;99.90;;;;;;6270753;22;20008;-67
2023/11/19 11:37:29;;;;;;;5.45;3.05;;;12.80;99.90;;;;;;6270475;22;20018;-68
2023/11/19 11:40:18;;;;;;;7.78;3.08;;;12.80;99.90;;;;;;6270532;22;20008;-67
2023/11/19 11:43:05;;;;;;;7.97;3.72;;;12.70;99.90;;;;;;6268349;22;20460;-68
2023/11/19 11:45:51;;;;;;;8.68;3.40;;;12.80;99.90;;;;;;6269595;22;20452;-67
2023/11/19 11:48:46;;;;;;;11.65;3.55;;;12.90;99.90;;;;;;6266520;22;20011;-68
2023/11/19 11:51:44;;;;;;;9.98;3.95;;;12.90;99.90;;;;;;6271400;22;20004;-68
2023/11/19 11:54:32;;;;;;;10.73;3.25;;;13.00;99.90;;;;;;6271418;22;20388;-67
2023/11/19 11:57:18;;;;;;;12.50;4.25;;;13.00;99.90;;;;;;6271732;22;20011;-67
2023/11/19 12:00:10;;;;;;;13.95;4.38;;;13.10;99.90;;;;;;6273175;22;20012;-67
2023/11/19 12:02:57;;;;;;;11.32;3.83;;;13.10;99.90;;;;;;6273564;22;20023;-65
2023/11/19 12:05:47;;;;;;;8.52;3.67;;;13.20;99.90;;;;;;6270260;22;20007;-66
2023/11/19 12:08:35;;;;;;;11.60;3.90;;;13.30;99.90;;;;;;6269643;22;20075;-66
2023/11/19 12:11:24;;;;;;;7.97;2.95;;;13.30;99.90;;;;;;6250427;22;20443;-66
2023/11/19 12:14:10;;;;;;;15.82;3.95;;;13.40;99.90;;;;;;6269928;22;20019;-67
2023/11/19 12:17:13;;;;;;;8.32;3.20;;;13.40;99.90;;;;;;6270585;22;20074;-66
2023/11/19 12:20:01;;;;;;;9.80;3.63;;;13.40;99.90;;;;;;6247613;22;20128;-67
2023/11/19 12:22:49;;;;;;;11.15;4.05;;;13.50;99.90;;;;;;6270766;22;20023;-66
2023/11/19 12:25:35;;;;;;;12.82;4.70;;;13.50;99.90;;;;;;6269527;22;20018;-66
2023/11/19 12:28:24;;;;;;;5.90;3.08;;;13.60;99.90;;;;;;6270709;22;20349;-66
2023/11/19 12:31:10;;;;;;;9.85;3.80;;;13.60;99.90;;;;;;6270790;22;19999;-66
2023/11/19 12:33:55;;;;;;;13.63;4.45;;;13.60;99.90;;;;;;6248577;22;20112;-66
2023/11/19 12:36:42;;;;;;;18.30;4.03;;;13.60;99.90;;;;;;6268709;22;20015;-66
2023/11/19 12:39:31;;;;;;;12.82;3.70;;;13.60;99.90;;;;;;6270468;22;20018;-67
2023/11/19 12:42:17;;;;;;;12.68;3.55;;;13.70;99.90;;;;;;6269848;22;20081;-66
2023/11/19 12:45:04;;;;;;;9.45;3.83;;;13.70;99.90;;;;;;6269627;22;20008;-67
2023/11/19 12:48:03;;;;;;;11.32;3.72;;;13.60;99.90;;;;;;6268984;22;20031;-67
2023/11/19 12:51:01;;;;;;;13.93;3.83;;;13.60;99.90;;;;;;6269196;22;20015;-66
2023/11/19 12:53:50;;;;;;;17.92;5.03;;;13.60;99.90;;;;;;6269250;22;20008;-66
2023/11/19 12:56:37;;;;;;;11.52;4.13;;;13.60;99.90;;;;;;6271311;22;20499;-66
2023/11/19 12:59:23;;;;;;;19.45;7.07;;;13.60;99.90;;;;;;6269123;22;20008;-67
2023/11/19 13:02:09;;;;;;;32.13;7.95;;;13.60;99.90;;;;;;6270221;22;20023;-66
2023/11/19 13:04:56;;;;;;;13.90;4.07;;;13.60;99.90;;;;;;6268624;22;20007;-66
2023/11/19 13:07:42;;;;;;;24.08;6.95;;;13.60;99.90;;;;;;6268892;22;20410;-67
2023/11/19 13:10:28;;;;;;;12.00;4.93;;;13.60;99.90;;;;;;6269566;22;20086;-67
2023/11/19 13:13:14;;;;;;;12.18;4.93;;;13.50;99.90;;;;;;6267911;22;20007;-67
2023/11/19 13:16:07;;;;;;;19.23;4.70;;;13.50;99.90;;;;;;6270805;22;20008;-67
2023/11/19 13:18:53;;;;;;;10.35;4.25;;;13.50;99.90;;;;;;6269560;22;20043;-66
2023/11/19 13:21:39;;;;;;;13.85;4.55;;;13.50;99.90;;;;;;6267874;22;20030;-66
2023/11/19 13:24:25;;;;;;;11.90;4.55;;;13.50;99.90;;;;;;6271802;22;20012;-66
2023/11/19 13:27:11;;;;;;;11.73;4.10;;;13.50;99.90;;;;;;6270409;22;20014;-66
2023/11/19 13:29:57;;;;;;;13.70;4.85;;;13.50;99.90;;;;;;6248659;22;20481;-66
2023/11/19 13:32:46;;;;;;;14.98;4.13;;;13.50;99.90;;;;;;6269449;22;20016;-66
2023/11/19 13:35:31;;;;;;;17.95;4.88;;;13.50;99.90;;;;;;6271209;22;20069;-67
2023/11/19 13:38:17;;;;;;;10.10;3.75;;;13.40;99.90;;;;;;6268765;22;20012;-66
2023/11/19 13:41:04;;;;;;;16.60;4.60;;;13.40;99.90;;;;;;6267883;22;20441;-66
2023/11/19 13:43:50;;;;;;;12.95;4.72;;;13.50;99.90;;;;;;6269690;22;20050;-65
2023/11/19 13:46:36;;;;;;;14.10;5.10;;;13.40;99.90;;;;;;6269370;22;20421;-66
2023/11/19 13:49:22;;;;;;;10.48;3.92;;;13.40;99.90;;;;;;6268189;22;20030;-67
2023/11/19 13:52:08;;;;;;;18.05;4.20;;;13.50;99.90;;;;;;6270048;22;20011;-66
2023/11/19 13:54:54;;;;;;;14.15;4.25;;;13.50;99.90;;;;;;6268882;22;20004;-65
2023/11/19 13:57:41;;;;;;;14.05;4.10;;;13.50;99.90;;;;;;6268910;22;20015;-65
2023/11/19 14:00:27;;;;;;;15.57;5.78;;;13.50;99.90;;;;;;6268252;22;20011;-66
2023/11/19 14:03:13;;;;;;;8.10;3.70;;;13.50;99.90;;;;;;6268957;22;20015;-66
2023/11/19 14:06:00;;;;;;;13.43;4.60;;;13.50;99.90;;;;;;6270470;22;20390;-66
2023/11/19 14:08:46;;;;;;;12.65;5.35;;;13.60;99.90;;;;;;6270655;22;20014;-67
2023/11/19 14:11:32;;;;;;;14.57;4.43;;;13.60;99.90;;;;;;6268932;22;20012;-64
2023/11/19 14:14:18;;;;;;;22.35;5.28;;;13.60;99.90;;;;;;6247636;22;20087;-65
2023/11/19 14:17:04;;;;;;;11.55;5.07;;;13.60;99.90;;;;;;6268511;22;20512;-66
2023/11/19 14:19:51;;;;;;;15.68;5.50;;;13.60;99.90;;;;;;6270445;22;20449;-65
2023/11/19 14:22:36;;;;;;;18.92;5.82;;;13.60;99.90;;;;;;6270548;22;20022;-66
2023/11/19 14:25:23;;;;;;;20.10;7.10;;;13.60;99.90;;;;;;6270750;22;20270;-66
2023/11/19 14:28:09;;;;;;;15.23;6.20;;;13.60;99.90;;;;;;6268012;22;20007;-65
2023/11/19 14:30:56;;;;;;;15.93;6.57;;;13.60;99.90;;;;;;6267944;22;20043;-66
2023/11/19 14:33:42;;;;;;;12.90;5.43;;;13.60;99.90;;;;;;6268564;22;20468;-66
2023/11/19 14:36:28;;;;;;;13.43;5.45;;;13.60;99.90;;;;;;6269489;22;20007;-65
2023/11/19 14:39:14;;;;;;;17.05;5.13;;;13.60;99.90;;;;;;6270995;22;20522;-65
2023/11/19 14:42:04;;;;;;;14.20;5.55;;;13.60;99.90;;;;;;6269378;22;20107;-66
2023/11/19 14:44:52;;;;;;;16.83;6.32;;;13.60;99.90;;;;;;6268743;22;20027;-66
2023/11/19 14:47:38;;;;;;;13.50;5.15;;;13.60;99.90;;;;;;6268787;22;20445;-66
2023/11/19 14:50:24;;;;;;;13.30;4.53;;;13.60;99.90;;;;;;6269593;22;20102;-65
2023/11/19 14:53:10;;;;;;;15.27;5.18;;;13.60;99.90;;;;;;6271913;22;20011;-66
2023/11/19 14:55:56;;;;;;;18.77;6.50;;;13.50;99.90;;;;;;6271366;22;20008;-65
2023/11/19 14:58:44;;;;;;;17.67;4.97;;;13.50;99.90;;;;;;6272083;22;20012;-66
2023/11/19 15:01:30;;;;;;;13.52;5.30;;;13.50;99.90;;;;;;6271447;22;20098;-65
2023/11/19 15:04:17;;;;;;;11.52;4.00;;;13.50;99.90;;;;;;6270664;22;20004;-66
2023/11/19 15:07:04;;;;;;;15.57;5.18;;;13.40;99.90;;;;;;6249227;22;20038;-65
2023/11/19 15:09:50;;;;;;;11.30;4.35;;;13.40;99.90;;;;;;6270545;22;20086;-66
2023/11/19 15:12:40;;;;;;;14.88;4.63;;;13.40;99.90;;;;;;6270943;22;20015;-66
2023/11/19 15:19:08;;;;;;;16.45;5.68;;;13.40;99.90;;;;;;6271198;22;20082;-66
2023/11/19 15:21:55;;;;;;;12.50;4.95;;;13.40;99.90;;;;;;6270598;22;20016;-67
2023/11/19 15:24:41;;;;;;;13.88;4.95;;;13.40;99.90;;;;;;6269641;22;20301;-67
2023/11/19 15:27:27;;;;;;;25.55;5.45;;;13.30;99.90;;;;;;6270881;22;20012;-66
2023/11/19 15:30:13;;;;;;;19.08;6.97;;;13.40;99.90;;;;;;6272040;22;20218;-66
2023/11/19 15:32:59;;;;;;;16.25;5.60;;;13.30;99.90;;;;;;6269300;22;20015;-66
2023/11/19 15:35:45;;;;;;;16.27;5.85;;;13.30;99.90;;;;;;6270691;22;20003;-66
2023/11/19 15:38:31;;;;;;;13.90;5.43;;;13.30;99.90;;;;;;6269550;22;20534;-66
2023/11/19 15:41:17;;;;;;;19.02;6.32;;;13.30;99.90;;;;;;6270672;22;20016;-66
2023/11/19 15:44:03;;;;;;;13.63;5.55;;;13.30;99.90;;;;;;6269194;22;20388;-66
2023/11/19 15:46:49;;;;;;;15.60;7.38;;;13.30;99.90;;;;;;6272163;22;20007;-65
2023/11/19 15:49:36;;;;;;;19.05;5.93;;;13.20;99.90;;;;;;6272130;22;20523;-66
2023/11/19 15:52:22;;;;;;;13.55;6.25;;;13.20;99.90;;;;;;6269831;22;20011;-66
2023/11/19 15:55:09;;;;;;;16.00;6.63;;;13.20;99.90;;;;;;6270715;22;20018;-66
2023/11/19 15:57:55;;;;;;;17.20;6.60;;;13.20;99.90;;;;;;6269978;22;20446;-65
2023/11/19 16:00:46;;;;;;;22.90;8.60;;;13.20;99.90;;;;;;6270172;22;20493;-66
2023/11/19 16:03:33;;;;;;;18.95;7.45;;;13.20;99.90;;;;;;6268819;22;20026;-66
2023/11/19 16:06:19;;;;;;;20.88;7.03;;;13.20;99.90;;;;;;6268669;22;20073;-67
2023/11/19 16:09:05;;;;;;;20.75;8.30;;;13.20;99.90;;;;;;6270638;22;20080;-67
2023/11/19 16:11:51;;;;;;;18.23;8.52;;;13.20;99.90;;;;;;6270620;22;20006;-66
2023/11/19 16:14:37;;;;;;;23.58;8.98;;;13.20;99.90;;;;;;6267998;22;20008;-65
2023/11/19 16:17:23;;;;;;;24.05;8.50;;;13.10;99.90;;;;;;6268705;22;20038;-64
2023/11/19 16:20:10;;;;;;;21.92;8.48;;;13.20;99.90;;;;;;6270060;22;20012;-66
2023/11/19 16:22:59;;;;;;;21.27;7.80;;;13.10;99.90;;;;;;6269017;22;20011;-66